createdAt,value
2019-02-27T00:00:44.048Z,78.35
2019-02-27T00:03:14.719Z,78.67
2019-02-27T00:05:43.688Z,69.82
2019-02-27T00:08:12.593Z,73.12
2019-02-27T00:10:41.708Z,77.82
2019-02-27T00:13:10.655Z,74.92
2019-02-27T00:15:39.769Z,77.55
2019-02-27T00:18:08.808Z,75.05
2019-02-27T00:20:37.782Z,75.47
2019-02-27T00:23:06.916Z,79.32
2019-02-27T00:25:36.684Z,79.50
2019-02-27T00:28:05.988Z,124.78
2019-02-27T00:30:37.955Z,85.05
2019-02-27T00:33:05.850Z,86.08
2019-02-27T00:35:38.669Z,115.10
2019-02-27T00:38:05.430Z,86.00
2019-02-27T00:40:38.594Z,87.97
2019-02-27T00:43:05.356Z,82.37
2019-02-27T00:45:34.407Z,82.05
2019-02-27T00:48:03.347Z,78.57
2019-02-27T00:50:32.371Z,75.83
2019-02-27T00:53:01.337Z,80.22
2019-02-27T00:55:30.329Z,84.70
2019-02-27T00:57:59.352Z,84.77
2019-02-27T01:00:28.554Z,82.50
2019-02-27T01:02:57.628Z,81.30
2019-02-27T01:05:26.574Z,83.97
2019-02-27T01:07:55.481Z,86.28
2019-02-27T01:10:24.403Z,88.27
2019-02-27T01:12:57.959Z,81.95
2019-02-27T01:15:24.083Z,80.45
2019-02-27T01:17:55.016Z,79.77
2019-02-27T01:20:23.622Z,83.50
2019-02-27T01:22:52.488Z,81.60
2019-02-27T01:25:23.051Z,82.95
2019-02-27T01:27:52.057Z,84.70
2019-02-27T01:30:24.007Z,83.92
2019-02-27T01:32:51.663Z,84.03
2019-02-27T01:35:20.531Z,81.05
2019-02-27T01:37:49.420Z,80.22
2019-02-27T01:40:18.695Z,83.95
2019-02-27T01:42:47.818Z,80.85
2019-02-27T01:45:20.642Z,77.75
2019-02-27T01:47:47.833Z,78.57
2019-02-27T01:50:30.984Z,81.67
2019-02-27T01:52:59.948Z,83.05
2019-02-27T01:55:28.803Z,78.40
2019-02-27T01:57:57.684Z,74.77
2019-02-27T02:00:26.700Z,76.22
2019-02-27T02:02:55.670Z,77.42
2019-02-27T02:05:27.111Z,72.80
2019-02-27T02:07:56.347Z,74.32
2019-02-27T02:10:28.098Z,76.53
2019-02-27T02:13:02.118Z,74.97
2019-02-27T02:15:33.897Z,72.05
2019-02-27T02:18:08.696Z,78.42
2019-02-27T02:20:49.698Z,79.40
2019-02-27T02:23:27.316Z,84.28
2019-02-27T02:26:04.943Z,81.53
2019-02-27T02:28:48.054Z,86.08
2019-02-27T02:31:31.683Z,82.88
2019-02-27T02:34:15.564Z,79.20
2019-02-27T02:37:04.179Z,82.20
2019-02-27T02:39:54.652Z,84.05
2019-02-27T02:42:33.363Z,83.70
2019-02-27T02:45:10.955Z,86.50
2019-02-27T02:47:45.272Z,80.03
2019-02-27T02:50:42.835Z,82.17
2019-02-27T02:53:29.518Z,77.53
2019-02-27T02:56:01.363Z,79.27
2019-02-27T02:58:33.233Z,76.30
2019-02-27T03:01:05.101Z,75.50
2019-02-27T03:03:39.794Z,79.40
2019-02-27T03:06:38.722Z,75.32
2019-02-27T03:09:13.388Z,75.92
2019-02-27T03:12:00.273Z,81.95
2019-02-27T03:14:53.144Z,79.97
2019-02-27T03:17:36.004Z,74.50
2019-02-27T03:20:22.761Z,76.65
2019-02-27T03:23:15.701Z,72.47
2019-02-27T03:25:47.912Z,71.00
2019-02-27T03:28:29.044Z,72.40
2019-02-27T03:31:19.144Z,74.35
2019-02-27T03:34:12.403Z,76.02
2019-02-27T03:36:56.248Z,77.10
2019-02-27T03:40:02.565Z,75.30
2019-02-27T03:42:43.283Z,82.37
2019-02-27T03:45:33.154Z,85.45
2019-02-27T03:48:07.685Z,93.25
2019-02-27T03:51:06.729Z,101.60
2019-02-27T03:53:47.382Z,97.50
2019-02-27T03:56:27.794Z,95.75
2019-02-27T03:59:11.497Z,104.30
2019-02-27T04:02:06.186Z,101.58
2019-02-27T04:04:54.385Z,100.45
2019-02-27T04:07:50.617Z,102.22
2019-02-27T04:10:19.505Z,99.37
2019-02-27T04:12:51.429Z,95.75
2019-02-27T04:15:19.034Z,93.45
2019-02-27T04:17:51.697Z,87.80
2019-02-27T04:20:17.812Z,87.82
2019-02-27T04:22:46.735Z,90.05
2019-02-27T04:25:15.677Z,85.67
2019-02-27T04:27:44.546Z,86.92
2019-02-27T04:30:15.676Z,89.10
2019-02-27T04:32:48.698Z,86.85
2019-02-27T04:35:15.211Z,88.80
2019-02-27T04:37:44.132Z,91.08
2019-02-27T04:40:13.118Z,102.00
2019-02-27T04:42:41.998Z,100.72
2019-02-27T04:45:12.422Z,96.40
2019-02-27T04:47:42.867Z,91.75
2019-02-27T04:50:11.927Z,124.22
2019-02-27T04:52:40.854Z,250.10
2019-02-27T04:55:09.932Z,178.27
2019-02-27T04:57:38.803Z,167.77
2019-02-27T05:00:10.617Z,89.97
2019-02-27T05:02:39.492Z,86.65
2019-02-27T05:05:09.563Z,80.97
2019-02-27T05:07:38.489Z,83.47
2019-02-27T05:10:09.878Z,79.53
2019-02-27T05:12:38.843Z,79.90
2019-02-27T05:15:09.363Z,83.07
2019-02-27T05:17:38.237Z,79.92
2019-02-27T05:20:11.461Z,87.75
2019-02-27T05:22:39.611Z,84.60
2019-02-27T05:25:08.667Z,82.92
2019-02-27T05:27:37.556Z,87.12
2019-02-27T05:30:12.067Z,82.08
2019-02-27T05:32:39.987Z,85.28
2019-02-27T05:35:09.042Z,85.72
2019-02-27T05:37:39.133Z,85.42
2019-02-27T05:40:10.332Z,89.92
2019-02-27T05:42:39.677Z,85.60
2019-02-27T05:45:11.322Z,86.70
2019-02-27T05:47:44.666Z,86.30
2019-02-27T05:50:12.627Z,81.95
2019-02-27T05:52:41.634Z,83.42
2019-02-27T05:55:10.616Z,78.67
2019-02-27T05:57:39.489Z,74.07
2019-02-27T06:00:11.327Z,69.27
2019-02-27T06:02:41.929Z,71.87
2019-02-27T06:05:11.047Z,76.22
2019-02-27T06:07:39.957Z,73.33
2019-02-27T06:10:20.164Z,70.10
2019-02-27T06:12:49.043Z,71.25
2019-02-27T06:15:19.328Z,67.87
2019-02-27T06:17:49.733Z,66.97
2019-02-27T06:20:19.598Z,66.97
2019-02-27T06:22:48.991Z,69.20
2019-02-27T06:25:23.483Z,67.90
2019-02-27T06:27:50.467Z,67.00
2019-02-27T06:30:21.304Z,71.05
2019-02-27T06:32:50.803Z,69.58
2019-02-27T06:35:20.520Z,71.35
2019-02-27T06:37:50.781Z,66.92
2019-02-27T06:40:21.055Z,64.97
2019-02-27T06:42:53.409Z,70.72
2019-02-27T06:45:22.015Z,66.37
2019-02-27T06:47:51.515Z,67.37
2019-02-27T06:50:25.243Z,64.95
2019-02-27T06:52:52.463Z,64.32
2019-02-27T06:55:21.873Z,61.83
2019-02-27T06:57:51.369Z,62.45
2019-02-27T07:00:22.006Z,62.85
2019-02-27T07:02:55.204Z,61.63
2019-02-27T07:05:22.865Z,62.93
2019-02-27T07:07:52.350Z,62.33
2019-02-27T07:10:21.960Z,60.88
2019-02-27T07:12:54.485Z,57.85
2019-02-27T07:15:23.627Z,55.90
2019-02-27T07:17:53.140Z,59.45
2019-02-27T07:20:24.530Z,58.10
2019-02-27T07:22:53.995Z,58.38
2019-02-27T07:25:23.600Z,57.62
2019-02-27T07:27:53.303Z,55.55
2019-02-27T07:30:23.851Z,55.50
2019-02-27T07:32:53.738Z,65.42
2019-02-27T07:35:25.782Z,60.80
2019-02-27T07:37:54.362Z,62.38
2019-02-27T07:40:23.784Z,58.65
2019-02-27T07:42:53.290Z,72.27
2019-02-27T07:45:23.507Z,64.05
2019-02-27T07:47:53.115Z,59.45
2019-02-27T07:50:22.928Z,57.90
2019-02-27T07:52:52.445Z,58.05
2019-02-27T07:55:23.635Z,55.30
2019-02-27T07:57:58.194Z,55.70
2019-02-27T08:00:26.309Z,54.80
2019-02-27T08:02:55.785Z,57.83
2019-02-27T08:05:28.307Z,53.45
2019-02-27T08:07:56.613Z,54.60
2019-02-27T08:10:27.039Z,60.48
2019-02-27T08:12:56.800Z,57.93
2019-02-27T08:15:26.568Z,55.08
2019-02-27T08:17:57.896Z,54.95
2019-02-27T08:20:26.999Z,54.05
2019-02-27T08:22:56.779Z,52.83
2019-02-27T08:25:27.550Z,52.38
2019-02-27T08:27:57.252Z,51.90
2019-02-27T08:30:27.885Z,50.75
2019-02-27T08:32:57.385Z,44.98
2019-02-27T08:35:26.882Z,46.18
2019-02-27T08:38:02.636Z,46.70
2019-02-27T08:40:27.747Z,46.45
2019-02-27T08:42:57.366Z,44.63
2019-02-27T08:45:27.699Z,45.83
2019-02-27T08:47:57.386Z,47.60
2019-02-27T08:50:29.172Z,54.77
2019-02-27T08:52:58.051Z,42.80
2019-02-27T08:55:27.422Z,42.10
2019-02-27T08:57:57.220Z,43.28
2019-02-27T09:00:33.805Z,43.58
2019-02-27T09:03:03.803Z,37.30
2019-02-27T09:05:33.527Z,36.73
2019-02-27T09:08:03.037Z,38.70
2019-02-27T09:10:32.738Z,37.08
2019-02-27T09:13:05.734Z,37.88
2019-02-27T09:15:33.496Z,33.95
2019-02-27T09:18:03.102Z,34.20
2019-02-27T09:20:32.699Z,34.40
2019-02-27T09:23:02.204Z,36.80
2019-02-27T09:25:32.016Z,30.02
2019-02-27T09:28:03.432Z,31.75
2019-02-27T09:30:32.459Z,32.15
2019-02-27T09:33:02.062Z,32.42
2019-02-27T09:35:34.516Z,30.25
2019-02-27T09:38:02.811Z,30.35
2019-02-27T09:40:32.291Z,29.50
2019-02-27T09:43:01.829Z,28.87
2019-02-27T09:45:38.587Z,28.55
2019-02-27T09:48:08.206Z,28.90
2019-02-27T09:50:48.958Z,28.02
2019-02-27T09:53:18.781Z,24.27
2019-02-27T09:55:48.367Z,23.85
2019-02-27T09:58:18.096Z,20.88
2019-02-27T10:00:59.337Z,21.12
2019-02-27T10:03:27.532Z,20.43
2019-02-27T10:05:57.148Z,18.55
2019-02-27T10:08:26.761Z,19.73
2019-02-27T10:10:56.268Z,17.65
2019-02-27T10:13:25.766Z,18.57
2019-02-27T10:15:55.258Z,19.23
2019-02-27T10:18:24.747Z,18.10
2019-02-27T10:20:54.239Z,18.60
2019-02-27T10:23:23.878Z,20.52
2019-02-27T10:25:53.378Z,20.45
2019-02-27T10:28:22.993Z,19.77
2019-02-27T10:30:52.483Z,21.82
2019-02-27T10:33:22.002Z,21.55
2019-02-27T10:35:51.617Z,21.68
2019-02-27T10:38:21.202Z,20.50
2019-02-27T10:40:50.716Z,18.70
2019-02-27T10:43:21.171Z,21.10
2019-02-27T10:45:50.843Z,20.30
2019-02-27T10:48:20.653Z,20.70
2019-02-27T10:50:50.272Z,22.05
2019-02-27T10:53:19.872Z,20.65
2019-02-27T10:55:50.036Z,20.70
2019-02-27T10:58:19.595Z,19.87
2019-02-27T11:00:50.316Z,21.68
2019-02-27T11:03:19.935Z,21.77
2019-02-27T11:05:52.340Z,19.05
2019-02-27T11:08:20.455Z,18.12
2019-02-27T11:10:49.982Z,17.45
2019-02-27T11:13:19.693Z,17.07
2019-02-27T11:15:49.188Z,14.23
2019-02-27T11:18:18.701Z,13.53
2019-02-27T11:20:48.193Z,15.68
2019-02-27T11:23:17.706Z,15.68
2019-02-27T11:25:47.302Z,15.20
2019-02-27T11:28:17.022Z,18.12
2019-02-27T11:30:46.622Z,16.45
2019-02-27T11:33:25.562Z,13.08
2019-02-27T11:35:47.673Z,11.63
2019-02-27T11:38:17.287Z,12.35
2019-02-27T11:40:46.987Z,11.85
2019-02-27T11:43:17.238Z,15.13
2019-02-27T11:45:46.927Z,12.90
2019-02-27T11:48:16.531Z,13.45
2019-02-27T11:50:45.934Z,13.75
2019-02-27T11:53:15.336Z,14.75
2019-02-27T11:55:47.059Z,15.13
2019-02-27T11:58:16.302Z,14.40
2019-02-27T12:00:45.882Z,15.68
2019-02-27T12:03:15.383Z,14.93
2019-02-27T12:05:44.797Z,13.43
2019-02-27T12:08:14.406Z,13.05
2019-02-27T12:10:44.010Z,12.85
2019-02-27T12:13:13.508Z,13.03
2019-02-27T12:15:43.617Z,11.15
2019-02-27T12:18:14.057Z,12.45
2019-02-27T12:20:43.553Z,12.18
2019-02-27T12:23:12.927Z,11.65
2019-02-27T12:25:42.663Z,11.97
2019-02-27T12:28:12.069Z,15.15
2019-02-27T12:30:41.676Z,22.62
2019-02-27T12:33:11.172Z,15.68
2019-02-27T12:35:44.153Z,10.80
2019-02-27T12:38:11.623Z,26.60
2019-02-27T12:40:41.126Z,11.78
2019-02-27T12:43:10.623Z,10.25
2019-02-27T12:45:40.127Z,10.65
2019-02-27T12:48:12.609Z,10.18
2019-02-27T12:50:40.775Z,9.30
2019-02-27T12:53:10.491Z,10.20
2019-02-27T12:55:40.185Z,8.45
2019-02-27T12:58:09.492Z,7.30
2019-02-27T13:00:39.995Z,6.80
2019-02-27T13:03:10.241Z,7.03
2019-02-27T13:05:39.643Z,7.58
2019-02-27T13:08:11.149Z,6.92
2019-02-27T13:10:40.178Z,8.50
2019-02-27T13:13:09.691Z,7.15
2019-02-27T13:15:41.115Z,7.67
2019-02-27T13:18:10.737Z,6.62
2019-02-27T13:20:43.033Z,5.90
2019-02-27T13:23:11.487Z,6.75
2019-02-27T13:25:41.075Z,5.60
2019-02-27T13:28:10.597Z,7.40
2019-02-27T13:30:41.567Z,7.00
2019-02-27T13:33:11.546Z,6.03
2019-02-27T13:35:41.054Z,5.78
2019-02-27T13:38:10.441Z,5.22
2019-02-27T13:40:39.933Z,4.58
2019-02-27T13:43:09.785Z,7.58
2019-02-27T13:45:39.574Z,4.60
2019-02-27T13:48:09.295Z,4.35
2019-02-27T13:50:39.002Z,4.50
2019-02-27T13:53:08.815Z,4.78
2019-02-27T13:55:38.216Z,5.03
2019-02-27T13:58:07.812Z,4.33
2019-02-27T14:00:39.108Z,4.83
2019-02-27T14:03:12.090Z,5.33
2019-02-27T14:05:40.229Z,4.67
2019-02-27T14:08:10.537Z,4.83
2019-02-27T14:10:40.161Z,4.00
2019-02-27T14:13:09.942Z,5.00
2019-02-27T14:15:39.557Z,4.62
2019-02-27T14:18:09.175Z,4.40
2019-02-27T14:20:40.007Z,3.62
2019-02-27T14:23:11.963Z,3.92
2019-02-27T14:25:41.057Z,3.70
2019-02-27T14:28:10.466Z,4.08
2019-02-27T14:30:51.123Z,3.70
2019-02-27T14:33:20.743Z,3.55
2019-02-27T14:35:50.251Z,7.25
2019-02-27T14:38:21.988Z,3.67
2019-02-27T14:40:51.285Z,4.65
2019-02-27T14:43:20.998Z,5.25
2019-02-27T14:45:50.934Z,3.98
2019-02-27T14:48:21.417Z,4.72
2019-02-27T14:50:52.076Z,3.60
2019-02-27T14:53:22.165Z,4.28
2019-02-27T14:55:51.899Z,7.87
2019-02-27T14:58:24.372Z,8.00
2019-02-27T15:00:52.952Z,9.45
2019-02-27T15:03:22.566Z,4.42
2019-02-27T15:05:52.164Z,3.58
2019-02-27T15:08:21.673Z,4.28
2019-02-27T15:10:51.386Z,3.40
2019-02-27T15:13:21.079Z,3.33
2019-02-27T15:15:50.794Z,3.47
2019-02-27T15:18:22.528Z,3.83
2019-02-27T15:20:51.953Z,3.70
2019-02-27T15:23:24.497Z,4.42
2019-02-27T15:25:52.803Z,3.75
2019-02-27T15:28:22.303Z,3.90
2019-02-27T15:30:52.027Z,4.17
2019-02-27T15:33:22.335Z,3.47
2019-02-27T15:35:55.552Z,3.30
2019-02-27T15:38:24.515Z,4.67
2019-02-27T15:40:54.220Z,4.83
2019-02-27T15:43:24.234Z,4.70
2019-02-27T15:45:54.053Z,5.20
2019-02-27T15:48:23.764Z,4.70
2019-02-27T15:50:56.586Z,4.40
2019-02-27T15:53:25.123Z,4.40
2019-02-27T15:55:54.733Z,4.30
2019-02-27T15:58:25.374Z,3.20
2019-02-27T16:00:56.509Z,3.60
2019-02-27T16:03:25.894Z,3.65
2019-02-27T16:05:55.826Z,2.90
2019-02-27T16:08:26.141Z,3.40
2019-02-27T16:10:55.851Z,3.30
2019-02-27T16:13:25.455Z,3.22
2019-02-27T16:15:55.158Z,2.77
2019-02-27T16:18:25.922Z,3.70
2019-02-27T16:20:56.424Z,3.40
2019-02-27T16:23:26.027Z,2.90
2019-02-27T16:25:56.560Z,2.90
2019-02-27T16:28:27.709Z,2.62
2019-02-27T16:30:57.614Z,2.87
2019-02-27T16:33:28.587Z,2.90
2019-02-27T16:35:59.484Z,3.15
2019-02-27T16:38:31.621Z,2.58
2019-02-27T16:41:02.584Z,2.70
2019-02-27T16:43:32.092Z,2.45
2019-02-27T16:46:02.211Z,2.50
2019-02-27T16:48:34.475Z,2.12
2019-02-27T16:51:05.421Z,2.50
2019-02-27T16:53:36.050Z,2.58
2019-02-27T16:56:08.279Z,2.60
2019-02-27T16:58:37.513Z,4.00
2019-02-27T17:01:10.079Z,6.62
2019-02-27T17:03:39.693Z,7.08
2019-02-27T17:06:09.811Z,8.03
2019-02-27T17:08:40.152Z,14.53
2019-02-27T17:11:10.356Z,10.48
2019-02-27T17:13:41.399Z,4.20
2019-02-27T17:16:12.240Z,3.33
2019-02-27T17:18:42.151Z,2.62
2019-02-27T17:21:11.958Z,2.83
2019-02-27T17:23:45.413Z,2.80
2019-02-27T17:26:14.906Z,2.95
2019-02-27T17:28:44.999Z,2.85
2019-02-27T17:31:15.430Z,3.10
2019-02-27T17:33:45.952Z,3.00
2019-02-27T17:36:16.471Z,3.50
2019-02-27T17:38:49.698Z,3.58
2019-02-27T17:41:18.322Z,4.53
2019-02-27T17:43:51.540Z,10.10
2019-02-27T17:46:21.497Z,6.03
2019-02-27T17:48:51.759Z,3.95
2019-02-27T17:51:22.121Z,7.03
2019-02-27T17:53:55.071Z,27.40
2019-02-27T17:56:30.568Z,63.85
2019-02-27T17:59:01.041Z,57.85
2019-02-27T18:01:31.391Z,21.97
2019-02-27T18:04:01.776Z,34.63
2019-02-27T18:06:34.861Z,63.38
2019-02-27T18:09:04.786Z,35.28
2019-02-27T18:11:34.994Z,55.28
2019-02-27T18:14:08.991Z,40.78
2019-02-27T18:16:37.586Z,34.63
2019-02-27T18:19:08.551Z,52.40
2019-02-27T18:21:39.071Z,64.20
2019-02-27T18:24:09.511Z,63.42
2019-02-27T18:26:40.222Z,46.28
2019-02-27T18:29:10.736Z,57.15
2019-02-27T18:31:40.680Z,29.45
2019-02-27T18:34:10.992Z,24.47
2019-02-27T18:36:43.019Z,68.78
2019-02-27T18:39:13.992Z,74.45
2019-02-27T18:41:45.724Z,84.55
2019-02-27T18:44:17.712Z,66.77
2019-02-27T18:46:48.029Z,59.83
2019-02-27T18:49:18.653Z,34.43
2019-02-27T18:51:49.870Z,28.15
2019-02-27T18:54:22.859Z,25.30
2019-02-27T18:56:54.426Z,30.50
2019-02-27T18:59:29.408Z,29.75
2019-02-27T19:01:57.233Z,35.13
2019-02-27T19:04:27.552Z,32.00
2019-02-27T19:06:57.973Z,31.87
2019-02-27T19:09:29.303Z,31.10
2019-02-27T19:12:00.250Z,28.12
2019-02-27T19:14:30.797Z,27.25
2019-02-27T19:17:02.326Z,24.57
2019-02-27T19:19:33.510Z,22.90
2019-02-27T19:22:04.340Z,20.95
2019-02-27T19:24:36.203Z,22.95
2019-02-27T19:27:06.831Z,21.80
2019-02-27T19:29:37.302Z,24.87
2019-02-27T19:32:07.277Z,25.65
2019-02-27T19:34:38.178Z,27.07
2019-02-27T19:37:10.202Z,30.02
2019-02-27T19:39:40.378Z,30.57
2019-02-27T19:42:13.240Z,26.35
2019-02-27T19:44:43.176Z,26.35
2019-02-27T19:47:15.034Z,24.55
2019-02-27T19:49:46.195Z,21.73
2019-02-27T19:52:16.991Z,20.23
2019-02-27T19:54:51.589Z,20.23
2019-02-27T19:57:21.631Z,20.08
2019-02-27T19:59:52.517Z,21.30
2019-02-27T20:02:23.703Z,21.27
2019-02-27T20:04:54.552Z,21.07
2019-02-27T20:07:24.748Z,21.20
2019-02-27T20:09:55.341Z,19.77
2019-02-27T20:12:25.751Z,25.72
2019-02-27T20:14:56.231Z,25.25
2019-02-27T20:17:31.677Z,25.37
2019-02-27T20:20:00.617Z,24.77
2019-02-27T20:22:31.234Z,25.43
2019-02-27T20:25:01.436Z,27.40
2019-02-27T20:27:32.071Z,27.40
2019-02-27T20:30:02.986Z,26.65
2019-02-27T20:32:35.071Z,26.25
2019-02-27T20:35:06.707Z,24.60
2019-02-27T20:37:40.319Z,26.62
2019-02-27T20:40:13.915Z,25.55
2019-02-27T20:42:49.974Z,27.15
2019-02-27T20:45:23.342Z,27.52
2019-02-27T20:48:01.746Z,24.00
2019-02-27T20:50:34.718Z,23.45
2019-02-27T20:53:04.996Z,21.90
2019-02-27T20:55:34.712Z,22.73
2019-02-27T20:58:05.231Z,22.75
2019-02-27T21:00:37.128Z,21.85
2019-02-27T21:03:07.872Z,21.77
2019-02-27T21:05:41.042Z,23.55
2019-02-27T21:08:10.231Z,23.90
2019-02-27T21:10:40.755Z,23.15
2019-02-27T21:13:15.702Z,24.12
2019-02-27T21:15:42.995Z,24.07
2019-02-27T21:18:13.631Z,26.02
2019-02-27T21:20:45.168Z,27.75
2019-02-27T21:23:16.429Z,26.50
2019-02-27T21:25:49.330Z,27.32
2019-02-27T21:28:20.976Z,28.50
2019-02-27T21:30:52.382Z,29.55
2019-02-27T21:33:22.435Z,28.87
2019-02-27T21:35:52.450Z,28.20
2019-02-27T21:38:22.664Z,30.35
2019-02-27T21:40:54.111Z,29.18
2019-02-27T21:43:25.608Z,27.75
2019-02-27T21:45:56.497Z,27.67
2019-02-27T21:48:27.865Z,29.15
2019-02-27T21:50:58.310Z,28.85
2019-02-27T21:53:29.598Z,30.32
2019-02-27T21:55:59.943Z,30.02
2019-02-27T21:58:32.881Z,28.92
2019-02-27T22:01:01.630Z,28.30
2019-02-27T22:03:31.628Z,28.57
2019-02-27T22:06:01.331Z,28.27
2019-02-27T22:08:31.048Z,28.07
2019-02-27T22:11:00.856Z,29.60
2019-02-27T22:13:32.325Z,30.55
2019-02-27T22:16:01.815Z,29.20
2019-02-27T22:18:31.939Z,29.07
2019-02-27T22:21:01.839Z,31.48
2019-02-27T22:23:31.848Z,31.30
2019-02-27T22:26:03.139Z,33.55
2019-02-27T22:28:33.222Z,31.25
2019-02-27T22:31:06.110Z,32.03
2019-02-27T22:33:35.805Z,30.40
2019-02-27T22:36:05.951Z,31.77
2019-02-27T22:38:35.951Z,30.40
2019-02-27T22:41:06.062Z,30.30
2019-02-27T22:43:35.672Z,29.82
2019-02-27T22:46:05.781Z,29.00
2019-02-27T22:48:36.230Z,30.68
2019-02-27T22:51:06.551Z,31.52
2019-02-27T22:53:36.498Z,31.68
2019-02-27T22:56:06.456Z,32.95
2019-02-27T22:58:35.871Z,31.15
2019-02-27T23:01:10.592Z,31.52
2019-02-27T23:03:45.752Z,30.57
2019-02-27T23:06:16.271Z,30.82
2019-02-27T23:08:46.496Z,32.08
2019-02-27T23:11:16.518Z,31.35
2019-02-27T23:13:49.790Z,30.70
2019-02-27T23:16:21.149Z,29.12
2019-02-27T23:18:51.657Z,30.72
2019-02-27T23:21:21.473Z,28.92
2019-02-27T23:23:51.190Z,29.87
2019-02-27T23:26:21.104Z,30.92
2019-02-27T23:28:51.440Z,29.02
2019-02-27T23:31:23.316Z,31.30
2019-02-27T23:33:53.175Z,33.35
2019-02-27T23:36:22.941Z,30.72
2019-02-27T23:38:53.151Z,31.02
2019-02-27T23:41:23.918Z,31.45
2019-02-27T23:43:54.391Z,31.65
2019-02-27T23:46:24.511Z,32.98
2019-02-27T23:48:54.910Z,30.62
2019-02-27T23:51:24.958Z,30.68
2019-02-27T23:53:55.351Z,28.45
2019-02-27T23:56:25.590Z,28.70
2019-02-27T23:58:55.637Z,27.90
